sensor_id;sensor_type;location;lat;lon;timestamp;temperature;humidity
47532;DHT22;33273;52.254;7.988;2023-02-26T00:00:20;-2.00;96.60
47532;DHT22;33273;52.254;7.988;2023-02-26T00:02:47;-2.00;96.20
47532;DHT22;33273;52.254;7.988;2023-02-26T00:05:13;-2.00;95.70
47532;DHT22;33273;52.254;7.988;2023-02-26T00:07:40;-2.00;95.00
47532;DHT22;33273;52.254;7.988;2023-02-26T00:10:07;-2.00;94.70
47532;DHT22;33273;52.254;7.988;2023-02-26T00:12:33;-2.00;94.40
47532;DHT22;33273;52.254;7.988;2023-02-26T00:15:00;-2.00;94.00
47532;DHT22;33273;52.254;7.988;2023-02-26T00:17:38;-2.10;93.70
47532;DHT22;33273;52.254;7.988;2023-02-26T00:20:06;-2.00;94.00
47532;DHT22;33273;52.254;7.988;2023-02-26T00:22:34;-2.10;93.00
47532;DHT22;33273;52.254;7.988;2023-02-26T00:25:00;-2.10;92.80
47532;DHT22;33273;52.254;7.988;2023-02-26T00:27:27;-2.10;92.80
47532;DHT22;33273;52.254;7.988;2023-02-26T00:29:53;-2.10;92.40
47532;DHT22;33273;52.254;7.988;2023-02-26T00:32:20;-2.10;91.90
47532;DHT22;33273;52.254;7.988;2023-02-26T00:34:46;-2.10;91.90
47532;DHT22;33273;52.254;7.988;2023-02-26T00:42:12;-2.20;92.00
47532;DHT22;33273;52.254;7.988;2023-02-26T00:44:38;-2.20;91.70
47532;DHT22;33273;52.254;7.988;2023-02-26T00:47:23;-2.20;91.50
47532;DHT22;33273;52.254;7.988;2023-02-26T00:49:56;-2.20;91.40
47532;DHT22;33273;52.254;7.988;2023-02-26T00:54:52;-2.30;91.20
47532;DHT22;33273;52.254;7.988;2023-02-26T00:57:18;-2.30;91.10
47532;DHT22;33273;52.254;7.988;2023-02-26T00:59:44;-2.30;91.10
47532;DHT22;33273;52.254;7.988;2023-02-26T01:02:09;-2.40;91.00
47532;DHT22;33273;52.254;7.988;2023-02-26T01:04:35;-2.40;91.00
47532;DHT22;33273;52.254;7.988;2023-02-26T01:07:01;-2.40;91.10
47532;DHT22;33273;52.254;7.988;2023-02-26T01:09:28;-2.40;91.20
47532;DHT22;33273;52.254;7.988;2023-02-26T01:11:55;-2.40;91.10
47532;DHT22;33273;52.254;7.988;2023-02-26T01:14:21;-2.40;91.40
47532;DHT22;33273;52.254;7.988;2023-02-26T01:16:56;-2.50;91.20
47532;DHT22;33273;52.254;7.988;2023-02-26T01:21:56;-2.50;91.30
47532;DHT22;33273;52.254;7.988;2023-02-26T01:24:27;-2.50;91.50
47532;DHT22;33273;52.254;7.988;2023-02-26T01:26:54;-2.50;91.40
47532;DHT22;33273;52.254;7.988;2023-02-26T01:29:21;-2.50;91.30
47532;DHT22;33273;52.254;7.988;2023-02-26T01:32:11;-2.50;91.30
47532;DHT22;33273;52.254;7.988;2023-02-26T01:37:30;-2.50;91.30
47532;DHT22;33273;52.254;7.988;2023-02-26T01:42:43;-2.60;91.40
47532;DHT22;33273;52.254;7.988;2023-02-26T01:45:12;-2.60;91.40
47532;DHT22;33273;52.254;7.988;2023-02-26T01:47:54;-2.60;91.70
47532;DHT22;33273;52.254;7.988;2023-02-26T01:50:22;-2.60;91.40
47532;DHT22;33273;52.254;7.988;2023-02-26T01:53:14;-2.60;91.30
47532;DHT22;33273;52.254;7.988;2023-02-26T01:55:42;-2.60;91.30
47532;DHT22;33273;52.254;7.988;2023-02-26T01:58:09;-2.70;91.40
47532;DHT22;33273;52.254;7.988;2023-02-26T02:00:37;-2.70;91.40
47532;DHT22;33273;52.254;7.988;2023-02-26T02:03:03;-2.70;91.60
47532;DHT22;33273;52.254;7.988;2023-02-26T02:06:16;-2.80;91.50
47532;DHT22;33273;52.254;7.988;2023-02-26T02:08:18;-2.80;91.60
47532;DHT22;33273;52.254;7.988;2023-02-26T02:10:46;-2.80;91.60
47532;DHT22;33273;52.254;7.988;2023-02-26T02:31:27;-3.10;92.00
47532;DHT22;33273;52.254;7.988;2023-02-26T02:41:42;-3.20;92.30
47532;DHT22;33273;52.254;7.988;2023-02-26T02:44:11;-3.20;92.40
47532;DHT22;33273;52.254;7.988;2023-02-26T02:46:38;-3.20;92.50
47532;DHT22;33273;52.254;7.988;2023-02-26T02:49:09;-3.20;92.90
47532;DHT22;33273;52.254;7.988;2023-02-26T02:51:43;-3.10;93.00
47532;DHT22;33273;52.254;7.988;2023-02-26T02:54:19;-3.20;92.70
47532;DHT22;33273;52.254;7.988;2023-02-26T02:56:51;-3.10;93.20
47532;DHT22;33273;52.254;7.988;2023-02-26T03:04:40;-3.00;92.10
47532;DHT22;33273;52.254;7.988;2023-02-26T03:07:06;-3.00;92.30
47532;DHT22;33273;52.254;7.988;2023-02-26T03:09:32;-3.00;91.10
47532;DHT22;33273;52.254;7.988;2023-02-26T03:11:58;-3.10;91.10
47532;DHT22;33273;52.254;7.988;2023-02-26T03:14:25;-3.10;90.90
47532;DHT22;33273;52.254;7.988;2023-02-26T03:25:09;-3.00;90.80
47532;DHT22;33273;52.254;7.988;2023-02-26T03:32:59;-3.00;90.40
47532;DHT22;33273;52.254;7.988;2023-02-26T03:38:13;-3.10;89.80
47532;DHT22;33273;52.254;7.988;2023-02-26T03:40:46;-3.10;89.90
47532;DHT22;33273;52.254;7.988;2023-02-26T03:43:22;-3.00;89.40
47532;DHT22;33273;52.254;7.988;2023-02-26T03:45:50;-3.00;89.50
47532;DHT22;33273;52.254;7.988;2023-02-26T03:48:21;-3.00;89.10
47532;DHT22;33273;52.254;7.988;2023-02-26T03:50:50;-3.10;89.20
47532;DHT22;33273;52.254;7.988;2023-02-26T03:53:49;-3.10;89.00
47532;DHT22;33273;52.254;7.988;2023-02-26T03:56:33;-3.10;88.90
47532;DHT22;33273;52.254;7.988;2023-02-26T03:59:40;-3.00;89.00
47532;DHT22;33273;52.254;7.988;2023-02-26T04:03:07;-3.00;88.50
47532;DHT22;33273;52.254;7.988;2023-02-26T04:05:34;-3.00;88.60
47532;DHT22;33273;52.254;7.988;2023-02-26T04:08:03;-3.00;88.40
47532;DHT22;33273;52.254;7.988;2023-02-26T04:10:33;-3.00;87.90
47532;DHT22;33273;52.254;7.988;2023-02-26T04:13:05;-3.00;87.80
47532;DHT22;33273;52.254;7.988;2023-02-26T04:15:32;-3.00;87.70
47532;DHT22;33273;52.254;7.988;2023-02-26T04:17:58;-3.00;87.70
47532;DHT22;33273;52.254;7.988;2023-02-26T04:20:27;-2.90;87.20
47532;DHT22;33273;52.254;7.988;2023-02-26T04:22:53;-2.90;87.00
47532;DHT22;33273;52.254;7.988;2023-02-26T04:25:21;-2.90;87.10
47532;DHT22;33273;52.254;7.988;2023-02-26T04:27:48;-2.90;86.80
47532;DHT22;33273;52.254;7.988;2023-02-26T04:30:14;-2.90;86.80
47532;DHT22;33273;52.254;7.988;2023-02-26T04:32:40;-2.90;86.30
47532;DHT22;33273;52.254;7.988;2023-02-26T04:35:09;-3.00;86.00
47532;DHT22;33273;52.254;7.988;2023-02-26T04:37:35;-2.90;85.80
47532;DHT22;33273;52.254;7.988;2023-02-26T04:40:02;-2.90;86.00
47532;DHT22;33273;52.254;7.988;2023-02-26T04:42:29;-2.90;85.80
47532;DHT22;33273;52.254;7.988;2023-02-26T04:44:55;-2.90;86.00
47532;DHT22;33273;52.254;7.988;2023-02-26T04:47:23;-2.90;86.30
47532;DHT22;33273;52.254;7.988;2023-02-26T04:49:49;-2.90;85.80
47532;DHT22;33273;52.254;7.988;2023-02-26T04:52:14;-2.80;85.80
47532;DHT22;33273;52.254;7.988;2023-02-26T04:54:40;-2.80;86.30
47532;DHT22;33273;52.254;7.988;2023-02-26T04:57:08;-2.80;85.80
47532;DHT22;33273;52.254;7.988;2023-02-26T04:59:33;-2.80;85.60
47532;DHT22;33273;52.254;7.988;2023-02-26T05:01:59;-2.80;85.60
47532;DHT22;33273;52.254;7.988;2023-02-26T05:04:25;-2.80;86.60
47532;DHT22;33273;52.254;7.988;2023-02-26T05:06:54;-2.90;85.60
47532;DHT22;33273;52.254;7.988;2023-02-26T05:09:21;-2.90;86.20
47532;DHT22;33273;52.254;7.988;2023-02-26T05:11:48;-2.90;86.00
47532;DHT22;33273;52.254;7.988;2023-02-26T05:14:14;-3.00;86.30
47532;DHT22;33273;52.254;7.988;2023-02-26T05:16:40;-3.00;86.70
47532;DHT22;33273;52.254;7.988;2023-02-26T05:19:09;-3.00;86.90
47532;DHT22;33273;52.254;7.988;2023-02-26T05:21:35;-3.00;87.20
47532;DHT22;33273;52.254;7.988;2023-02-26T05:24:00;-3.00;87.10
47532;DHT22;33273;52.254;7.988;2023-02-26T05:26:26;-3.00;87.90
47532;DHT22;33273;52.254;7.988;2023-02-26T05:28:52;-3.10;87.30
47532;DHT22;33273;52.254;7.988;2023-02-26T05:31:19;-3.10;87.50
47532;DHT22;33273;52.254;7.988;2023-02-26T05:33:44;-3.10;87.30
47532;DHT22;33273;52.254;7.988;2023-02-26T05:36:11;-3.10;87.30
47532;DHT22;33273;52.254;7.988;2023-02-26T05:38:37;-3.20;87.40
47532;DHT22;33273;52.254;7.988;2023-02-26T05:41:03;-3.20;87.90
47532;DHT22;33273;52.254;7.988;2023-02-26T05:43:29;-3.20;87.60
47532;DHT22;33273;52.254;7.988;2023-02-26T05:45:55;-3.20;88.10
47532;DHT22;33273;52.254;7.988;2023-02-26T05:48:22;-3.20;87.90
47532;DHT22;33273;52.254;7.988;2023-02-26T05:50:48;-3.30;88.20
47532;DHT22;33273;52.254;7.988;2023-02-26T05:53:14;-3.30;88.00
47532;DHT22;33273;52.254;7.988;2023-02-26T05:55:40;-3.30;87.80
47532;DHT22;33273;52.254;7.988;2023-02-26T05:58:12;-3.30;88.30
47532;DHT22;33273;52.254;7.988;2023-02-26T06:00:38;-3.40;88.30
47532;DHT22;33273;52.254;7.988;2023-02-26T06:03:04;-3.40;88.60
47532;DHT22;33273;52.254;7.988;2023-02-26T06:05:30;-3.30;89.70
47532;DHT22;33273;52.254;7.988;2023-02-26T06:07:57;-3.30;89.40
47532;DHT22;33273;52.254;7.988;2023-02-26T06:10:26;-3.30;88.70
47532;DHT22;33273;52.254;7.988;2023-02-26T06:12:52;-3.30;88.90
47532;DHT22;33273;52.254;7.988;2023-02-26T06:15:17;-3.30;89.30
47532;DHT22;33273;52.254;7.988;2023-02-26T06:17:43;-3.30;89.60
47532;DHT22;33273;52.254;7.988;2023-02-26T06:20:09;-3.30;89.50
47532;DHT22;33273;52.254;7.988;2023-02-26T06:22:35;-3.20;89.60
47532;DHT22;33273;52.254;7.988;2023-02-26T06:25:01;-3.20;89.20
47532;DHT22;33273;52.254;7.988;2023-02-26T06:27:26;-3.20;88.60
47532;DHT22;33273;52.254;7.988;2023-02-26T06:29:53;-3.30;88.70
47532;DHT22;33273;52.254;7.988;2023-02-26T06:32:22;-3.20;88.80
47532;DHT22;33273;52.254;7.988;2023-02-26T06:34:49;-3.20;89.00
47532;DHT22;33273;52.254;7.988;2023-02-26T06:37:15;-3.30;89.00
47532;DHT22;33273;52.254;7.988;2023-02-26T06:39:41;-3.30;89.10
47532;DHT22;33273;52.254;7.988;2023-02-26T06:42:07;-3.30;89.40
47532;DHT22;33273;52.254;7.988;2023-02-26T06:44:33;-3.30;89.70
47532;DHT22;33273;52.254;7.988;2023-02-26T06:46:59;-3.20;89.50
47532;DHT22;33273;52.254;7.988;2023-02-26T06:49:24;-3.20;90.80
47532;DHT22;33273;52.254;7.988;2023-02-26T06:51:50;-3.10;91.30
47532;DHT22;33273;52.254;7.988;2023-02-26T06:54:16;-3.10;91.80
47532;DHT22;33273;52.254;7.988;2023-02-26T06:56:42;-3.00;92.00
47532;DHT22;33273;52.254;7.988;2023-02-26T07:01:46;-2.90;92.50
47532;DHT22;33273;52.254;7.988;2023-02-26T07:04:14;-2.90;92.60
47532;DHT22;33273;52.254;7.988;2023-02-26T07:06:40;-2.40;98.10
47532;DHT22;33273;52.254;7.988;2023-02-26T07:09:05;-2.30;99.30
47532;DHT22;33273;52.254;7.988;2023-02-26T07:11:35;-2.40;98.00
47532;DHT22;33273;52.254;7.988;2023-02-26T07:14:01;-2.40;96.60
47532;DHT22;33273;52.254;7.988;2023-02-26T07:16:27;-2.40;93.40
47532;DHT22;33273;52.254;7.988;2023-02-26T07:18:53;-2.40;91.70
47532;DHT22;33273;52.254;7.988;2023-02-26T07:21:18;-2.40;91.00
47532;DHT22;33273;52.254;7.988;2023-02-26T07:23:44;-2.20;91.40
47532;DHT22;33273;52.254;7.988;2023-02-26T07:26:10;-2.20;90.90
47532;DHT22;33273;52.254;7.988;2023-02-26T07:28:35;-2.10;89.80
47532;DHT22;33273;52.254;7.988;2023-02-26T07:31:02;-2.10;89.00
47532;DHT22;33273;52.254;7.988;2023-02-26T07:33:28;-2.00;86.80
47532;DHT22;33273;52.254;7.988;2023-02-26T07:35:53;-2.00;86.00
47532;DHT22;33273;52.254;7.988;2023-02-26T07:38:20;-1.90;85.20
47532;DHT22;33273;52.254;7.988;2023-02-26T07:40:46;-1.80;83.50
47532;DHT22;33273;52.254;7.988;2023-02-26T07:43:12;-1.80;82.60
47532;DHT22;33273;52.254;7.988;2023-02-26T07:45:40;-1.70;82.60
47532;DHT22;33273;52.254;7.988;2023-02-26T07:48:05;-1.60;81.60
47532;DHT22;33273;52.254;7.988;2023-02-26T07:50:31;-1.60;81.40
47532;DHT22;33273;52.254;7.988;2023-02-26T07:52:58;-1.60;79.00
47532;DHT22;33273;52.254;7.988;2023-02-26T07:55:23;-1.50;78.60
47532;DHT22;33273;52.254;7.988;2023-02-26T07:57:49;-1.40;78.40
47532;DHT22;33273;52.254;7.988;2023-02-26T08:00:15;-1.40;78.00
47532;DHT22;33273;52.254;7.988;2023-02-26T08:02:41;-1.40;77.20
47532;DHT22;33273;52.254;7.988;2023-02-26T08:05:07;-1.30;73.50
47532;DHT22;33273;52.254;7.988;2023-02-26T08:07:34;-1.20;72.60
47532;DHT22;33273;52.254;7.988;2023-02-26T08:10:00;-1.20;73.40
47532;DHT22;33273;52.254;7.988;2023-02-26T08:12:26;-1.20;72.00
47532;DHT22;33273;52.254;7.988;2023-02-26T08:14:51;-1.10;70.60
47532;DHT22;33273;52.254;7.988;2023-02-26T08:17:17;-1.10;71.30
47532;DHT22;33273;52.254;7.988;2023-02-26T08:19:43;-1.00;70.60
47532;DHT22;33273;52.254;7.988;2023-02-26T08:22:09;-0.90;66.80
47532;DHT22;33273;52.254;7.988;2023-02-26T08:24:36;-0.90;68.40
47532;DHT22;33273;52.254;7.988;2023-02-26T08:27:02;-0.80;66.30
47532;DHT22;33273;52.254;7.988;2023-02-26T08:29:29;-0.80;67.40
47532;DHT22;33273;52.254;7.988;2023-02-26T08:31:54;-0.70;65.10
47532;DHT22;33273;52.254;7.988;2023-02-26T08:34:20;-0.70;65.20
47532;DHT22;33273;52.254;7.988;2023-02-26T08:36:46;-0.60;64.50
47532;DHT22;33273;52.254;7.988;2023-02-26T08:39:12;-0.60;61.50
47532;DHT22;33273;52.254;7.988;2023-02-26T08:41:37;-0.50;61.20
47532;DHT22;33273;52.254;7.988;2023-02-26T08:44:03;-0.50;60.60
47532;DHT22;33273;52.254;7.988;2023-02-26T08:46:29;-0.50;61.10
47532;DHT22;33273;52.254;7.988;2023-02-26T08:48:57;-0.40;59.90
47532;DHT22;33273;52.254;7.988;2023-02-26T08:51:23;-0.30;59.40
47532;DHT22;33273;52.254;7.988;2023-02-26T08:53:49;-0.30;59.00
47532;DHT22;33273;52.254;7.988;2023-02-26T08:56:16;-0.20;58.30
47532;DHT22;33273;52.254;7.988;2023-02-26T08:58:42;-0.10;57.90
47532;DHT22;33273;52.254;7.988;2023-02-26T09:01:09;-0.10;57.70
47532;DHT22;33273;52.254;7.988;2023-02-26T09:03:35;0.00;56.80
47532;DHT22;33273;52.254;7.988;2023-02-26T09:06:01;0.10;56.50
47532;DHT22;33273;52.254;7.988;2023-02-26T09:08:27;0.10;55.10
47532;DHT22;33273;52.254;7.988;2023-02-26T09:10:53;0.20;55.30
47532;DHT22;33273;52.254;7.988;2023-02-26T09:13:19;0.30;55.50
47532;DHT22;33273;52.254;7.988;2023-02-26T09:15:44;0.30;54.10
47532;DHT22;33273;52.254;7.988;2023-02-26T09:18:10;0.40;52.80
47532;DHT22;33273;52.254;7.988;2023-02-26T09:20:40;0.40;51.90
47532;DHT22;33273;52.254;7.988;2023-02-26T09:23:06;0.40;53.20
47532;DHT22;33273;52.254;7.988;2023-02-26T09:25:33;0.50;53.80
47532;DHT22;33273;52.254;7.988;2023-02-26T09:27:58;0.60;52.20
47532;DHT22;33273;52.254;7.988;2023-02-26T09:30:24;0.70;51.10
47532;DHT22;33273;52.254;7.988;2023-02-26T09:32:50;0.70;52.00
47532;DHT22;33273;52.254;7.988;2023-02-26T09:35:16;0.80;51.30
47532;DHT22;33273;52.254;7.988;2023-02-26T09:37:42;0.90;51.90
47532;DHT22;33273;52.254;7.988;2023-02-26T09:40:20;1.00;51.60
47532;DHT22;33273;52.254;7.988;2023-02-26T09:43:01;1.10;50.40
47532;DHT22;33273;52.254;7.988;2023-02-26T09:45:30;1.10;48.20
47532;DHT22;33273;52.254;7.988;2023-02-26T09:47:58;1.10;49.40
47532;DHT22;33273;52.254;7.988;2023-02-26T09:50:59;1.10;44.90
47532;DHT22;33273;52.254;7.988;2023-02-26T09:53:28;1.20;47.90
47532;DHT22;33273;52.254;7.988;2023-02-26T09:56:03;1.20;45.70
47532;DHT22;33273;52.254;7.988;2023-02-26T09:58:31;1.30;44.70
47532;DHT22;33273;52.254;7.988;2023-02-26T10:06:15;1.30;43.00
47532;DHT22;33273;52.254;7.988;2023-02-26T10:08:50;1.40;44.30
47532;DHT22;33273;52.254;7.988;2023-02-26T10:11:25;1.50;44.20
47532;DHT22;33273;52.254;7.988;2023-02-26T10:13:57;1.50;42.60
47532;DHT22;33273;52.254;7.988;2023-02-26T10:16:26;1.50;41.50
47532;DHT22;33273;52.254;7.988;2023-02-26T10:18:54;1.50;40.10
47532;DHT22;33273;52.254;7.988;2023-02-26T10:21:25;1.60;40.80
47532;DHT22;33273;52.254;7.988;2023-02-26T10:23:54;1.60;39.60
47532;DHT22;33273;52.254;7.988;2023-02-26T10:28:55;1.70;39.60
47532;DHT22;33273;52.254;7.988;2023-02-26T10:36:24;1.80;38.80
47532;DHT22;33273;52.254;7.988;2023-02-26T10:38:51;1.90;39.70
47532;DHT22;33273;52.254;7.988;2023-02-26T10:41:19;1.90;39.90
47532;DHT22;33273;52.254;7.988;2023-02-26T10:44:33;2.00;40.50
47532;DHT22;33273;52.254;7.988;2023-02-26T10:46:50;2.00;40.20
47532;DHT22;33273;52.254;7.988;2023-02-26T10:49:37;2.10;40.10
47532;DHT22;33273;52.254;7.988;2023-02-26T10:52:15;2.30;40.60
47532;DHT22;33273;52.254;7.988;2023-02-26T10:57:33;2.10;38.00
47532;DHT22;33273;52.254;7.988;2023-02-26T11:00:02;2.00;38.40
47532;DHT22;33273;52.254;7.988;2023-02-26T11:02:34;2.10;38.50
47532;DHT22;33273;52.254;7.988;2023-02-26T11:05:00;2.20;38.70
47532;DHT22;33273;52.254;7.988;2023-02-26T11:07:26;2.10;37.90
47532;DHT22;33273;52.254;7.988;2023-02-26T11:09:53;2.20;38.70
47532;DHT22;33273;52.254;7.988;2023-02-26T11:12:20;2.30;38.20
47532;DHT22;33273;52.254;7.988;2023-02-26T11:14:49;2.40;38.80
47532;DHT22;33273;52.254;7.988;2023-02-26T11:19:44;2.60;34.40
47532;DHT22;33273;52.254;7.988;2023-02-26T11:22:13;2.70;35.30
47532;DHT22;33273;52.254;7.988;2023-02-26T11:24:43;2.70;36.00
47532;DHT22;33273;52.254;7.988;2023-02-26T11:27:13;2.70;35.50
47532;DHT22;33273;52.254;7.988;2023-02-26T11:29:40;2.70;34.80
47532;DHT22;33273;52.254;7.988;2023-02-26T11:32:15;2.80;36.40
47532;DHT22;33273;52.254;7.988;2023-02-26T11:34:45;2.80;35.50
47532;DHT22;33273;52.254;7.988;2023-02-26T11:37:11;2.80;33.30
47532;DHT22;33273;52.254;7.988;2023-02-26T11:39:37;2.80;34.50
47532;DHT22;33273;52.254;7.988;2023-02-26T11:42:03;2.70;34.90
47532;DHT22;33273;52.254;7.988;2023-02-26T11:44:39;2.60;34.20
47532;DHT22;33273;52.254;7.988;2023-02-26T11:47:08;2.50;34.70
47532;DHT22;33273;52.254;7.988;2023-02-26T11:49:35;2.40;34.50
47532;DHT22;33273;52.254;7.988;2023-02-26T11:54:37;2.30;35.70
47532;DHT22;33273;52.254;7.988;2023-02-26T11:57:11;2.30;36.40
47532;DHT22;33273;52.254;7.988;2023-02-26T11:59:39;2.50;36.60
47532;DHT22;33273;52.254;7.988;2023-02-26T12:02:13;2.70;35.70
47532;DHT22;33273;52.254;7.988;2023-02-26T12:04:44;2.60;34.40
47532;DHT22;33273;52.254;7.988;2023-02-26T12:07:12;2.50;36.30
47532;DHT22;33273;52.254;7.988;2023-02-26T12:09:38;2.60;35.90
47532;DHT22;33273;52.254;7.988;2023-02-26T12:19:51;2.90;33.40
47532;DHT22;33273;52.254;7.988;2023-02-26T12:29:50;3.10;32.90
47532;DHT22;33273;52.254;7.988;2023-02-26T12:32:24;3.00;32.20
47532;DHT22;33273;52.254;7.988;2023-02-26T12:45:23;3.20;31.60
47532;DHT22;33273;52.254;7.988;2023-02-26T12:55:55;3.40;33.10
47532;DHT22;33273;52.254;7.988;2023-02-26T13:01:00;3.60;33.80
47532;DHT22;33273;52.254;7.988;2023-02-26T13:03:39;3.70;30.40
47532;DHT22;33273;52.254;7.988;2023-02-26T13:06:19;3.60;30.00
47532;DHT22;33273;52.254;7.988;2023-02-26T13:08:51;3.50;29.60
47532;DHT22;33273;52.254;7.988;2023-02-26T13:11:26;3.50;31.00
47532;DHT22;33273;52.254;7.988;2023-02-26T13:19:27;3.60;29.30
47532;DHT22;33273;52.254;7.988;2023-02-26T13:21:58;3.60;29.10
47532;DHT22;33273;52.254;7.988;2023-02-26T13:24:39;3.60;29.20
47532;DHT22;33273;52.254;7.988;2023-02-26T13:27:06;3.60;29.00
47532;DHT22;33273;52.254;7.988;2023-02-26T13:29:35;3.50;29.70
47532;DHT22;33273;52.254;7.988;2023-02-26T13:32:04;3.50;29.50
47532;DHT22;33273;52.254;7.988;2023-02-26T13:37:20;3.50;30.80
47532;DHT22;33273;52.254;7.988;2023-02-26T13:40:00;3.50;31.50
47532;DHT22;33273;52.254;7.988;2023-02-26T13:42:41;3.60;31.20
47532;DHT22;33273;52.254;7.988;2023-02-26T13:55:52;3.80;31.40
47532;DHT22;33273;52.254;7.988;2023-02-26T13:58:33;3.80;32.50
47532;DHT22;33273;52.254;7.988;2023-02-26T14:03:32;3.80;31.60
47532;DHT22;33273;52.254;7.988;2023-02-26T14:06:06;3.80;30.80
47532;DHT22;33273;52.254;7.988;2023-02-26T14:11:22;3.70;30.80
47532;DHT22;33273;52.254;7.988;2023-02-26T14:14:10;3.60;31.70
47532;DHT22;33273;52.254;7.988;2023-02-26T14:16:38;3.60;32.70
47532;DHT22;33273;52.254;7.988;2023-02-26T14:19:26;3.60;33.50
47532;DHT22;33273;52.254;7.988;2023-02-26T14:24:24;3.80;32.70
47532;DHT22;33273;52.254;7.988;2023-02-26T14:29:40;4.00;33.10
47532;DHT22;33273;52.254;7.988;2023-02-26T14:37:14;4.10;34.30
47532;DHT22;33273;52.254;7.988;2023-02-26T14:42:23;3.90;34.10
47532;DHT22;33273;52.254;7.988;2023-02-26T14:44:51;3.70;33.00
47532;DHT22;33273;52.254;7.988;2023-02-26T14:47:20;3.60;32.80
47532;DHT22;33273;52.254;7.988;2023-02-26T14:49:47;3.60;33.00
47532;DHT22;33273;52.254;7.988;2023-02-26T14:52:33;3.60;32.60
47532;DHT22;33273;52.254;7.988;2023-02-26T15:00:12;3.70;33.20
47532;DHT22;33273;52.254;7.988;2023-02-26T15:20:43;4.10;33.00
47532;DHT22;33273;52.254;7.988;2023-02-26T15:25:41;4.00;33.20
47532;DHT22;33273;52.254;7.988;2023-02-26T15:28:25;3.80;33.20
47532;DHT22;33273;52.254;7.988;2023-02-26T15:30:52;3.70;34.00
47532;DHT22;33273;52.254;7.988;2023-02-26T15:33:19;3.60;34.40
47532;DHT22;33273;52.254;7.988;2023-02-26T15:35:49;3.70;36.00
47532;DHT22;33273;52.254;7.988;2023-02-26T15:38:16;3.60;35.50
47532;DHT22;33273;52.254;7.988;2023-02-26T15:40:42;3.80;34.90
47532;DHT22;33273;52.254;7.988;2023-02-26T15:43:13;3.80;35.30
47532;DHT22;33273;52.254;7.988;2023-02-26T15:45:47;3.80;35.30
47532;DHT22;33273;52.254;7.988;2023-02-26T15:50:40;3.70;35.20
47532;DHT22;33273;52.254;7.988;2023-02-26T15:53:07;3.70;35.30
47532;DHT22;33273;52.254;7.988;2023-02-26T15:55:36;3.60;35.30
47532;DHT22;33273;52.254;7.988;2023-02-26T15:58:03;3.60;35.10
47532;DHT22;33273;52.254;7.988;2023-02-26T16:00:30;3.60;35.60
47532;DHT22;33273;52.254;7.988;2023-02-26T16:02:58;3.60;35.20
47532;DHT22;33273;52.254;7.988;2023-02-26T16:05:24;3.50;36.00
47532;DHT22;33273;52.254;7.988;2023-02-26T16:07:50;3.50;35.80
47532;DHT22;33273;52.254;7.988;2023-02-26T16:10:35;3.50;36.00
47532;DHT22;33273;52.254;7.988;2023-02-26T16:13:03;3.50;36.40
47532;DHT22;33273;52.254;7.988;2023-02-26T16:15:34;3.50;36.30
47532;DHT22;33273;52.254;7.988;2023-02-26T16:18:03;3.40;36.50
47532;DHT22;33273;52.254;7.988;2023-02-26T16:20:34;3.40;37.10
47532;DHT22;33273;52.254;7.988;2023-02-26T16:23:06;3.40;37.40
47532;DHT22;33273;52.254;7.988;2023-02-26T16:25:36;3.40;37.20
47532;DHT22;33273;52.254;7.988;2023-02-26T16:28:20;3.40;37.10
47532;DHT22;33273;52.254;7.988;2023-02-26T16:30:48;3.40;37.60
47532;DHT22;33273;52.254;7.988;2023-02-26T16:33:15;3.30;37.40
47532;DHT22;33273;52.254;7.988;2023-02-26T16:35:45;3.40;37.80
47532;DHT22;33273;52.254;7.988;2023-02-26T16:38:28;3.40;38.30
47532;DHT22;33273;52.254;7.988;2023-02-26T16:41:07;3.30;38.80
47532;DHT22;33273;52.254;7.988;2023-02-26T16:46:09;3.20;39.10
47532;DHT22;33273;52.254;7.988;2023-02-26T16:48:46;3.20;39.20
47532;DHT22;33273;52.254;7.988;2023-02-26T16:51:13;3.20;38.70
47532;DHT22;33273;52.254;7.988;2023-02-26T16:53:45;3.20;39.00
47532;DHT22;33273;52.254;7.988;2023-02-26T16:56:14;3.20;38.90
47532;DHT22;33273;52.254;7.988;2023-02-26T16:58:47;3.10;39.40
47532;DHT22;33273;52.254;7.988;2023-02-26T17:01:15;3.10;39.50
47532;DHT22;33273;52.254;7.988;2023-02-26T17:03:46;3.10;39.60
47532;DHT22;33273;52.254;7.988;2023-02-26T17:06:15;3.10;39.70
47532;DHT22;33273;52.254;7.988;2023-02-26T17:08:48;3.00;39.80
47532;DHT22;33273;52.254;7.988;2023-02-26T17:11:22;3.00;40.20
47532;DHT22;33273;52.254;7.988;2023-02-26T17:16:32;2.90;40.20
47532;DHT22;33273;52.254;7.988;2023-02-26T17:18:59;2.90;40.30
47532;DHT22;33273;52.254;7.988;2023-02-26T17:21:26;2.80;40.50
47532;DHT22;33273;52.254;7.988;2023-02-26T17:23:52;2.80;41.00
47532;DHT22;33273;52.254;7.988;2023-02-26T17:26:17;2.80;41.20
47532;DHT22;33273;52.254;7.988;2023-02-26T17:28:43;2.70;41.90
47532;DHT22;33273;52.254;7.988;2023-02-26T17:31:10;2.70;41.40
47532;DHT22;33273;52.254;7.988;2023-02-26T17:33:37;2.70;42.00
47532;DHT22;33273;52.254;7.988;2023-02-26T17:36:04;2.70;42.40
47532;DHT22;33273;52.254;7.988;2023-02-26T17:38:30;2.70;42.50
47532;DHT22;33273;52.254;7.988;2023-02-26T17:40:57;2.60;42.30
47532;DHT22;33273;52.254;7.988;2023-02-26T17:43:23;2.60;42.40
47532;DHT22;33273;52.254;7.988;2023-02-26T17:45:49;2.60;42.80
47532;DHT22;33273;52.254;7.988;2023-02-26T17:48:15;2.60;43.00
47532;DHT22;33273;52.254;7.988;2023-02-26T17:50:43;2.60;43.20
47532;DHT22;33273;52.254;7.988;2023-02-26T17:53:11;2.60;43.20
47532;DHT22;33273;52.254;7.988;2023-02-26T17:55:37;2.50;43.30
47532;DHT22;33273;52.254;7.988;2023-02-26T17:58:12;2.50;43.60
47532;DHT22;33273;52.254;7.988;2023-02-26T18:00:38;2.50;44.40
47532;DHT22;33273;52.254;7.988;2023-02-26T18:03:07;2.40;44.30
47532;DHT22;33273;52.254;7.988;2023-02-26T18:05:33;2.50;43.80
47532;DHT22;33273;52.254;7.988;2023-02-26T18:08:04;2.40;43.80
47532;DHT22;33273;52.254;7.988;2023-02-26T18:10:31;2.40;43.70
47532;DHT22;33273;52.254;7.988;2023-02-26T18:12:57;2.40;43.80
47532;DHT22;33273;52.254;7.988;2023-02-26T18:15:24;2.30;44.00
47532;DHT22;33273;52.254;7.988;2023-02-26T18:17:51;2.30;43.60
47532;DHT22;33273;52.254;7.988;2023-02-26T18:20:18;2.30;43.80
47532;DHT22;33273;52.254;7.988;2023-02-26T18:22:44;2.20;44.00
47532;DHT22;33273;52.254;7.988;2023-02-26T18:25:13;2.20;44.20
47532;DHT22;33273;52.254;7.988;2023-02-26T18:27:40;2.20;44.30
47532;DHT22;33273;52.254;7.988;2023-02-26T18:30:09;2.20;44.70
47532;DHT22;33273;52.254;7.988;2023-02-26T18:32:37;2.10;44.90
47532;DHT22;33273;52.254;7.988;2023-02-26T18:35:06;2.10;44.90
47532;DHT22;33273;52.254;7.988;2023-02-26T18:37:31;2.00;45.10
47532;DHT22;33273;52.254;7.988;2023-02-26T18:40:01;2.00;45.30
47532;DHT22;33273;52.254;7.988;2023-02-26T18:42:27;1.90;45.20
47532;DHT22;33273;52.254;7.988;2023-02-26T18:44:53;1.90;45.20
47532;DHT22;33273;52.254;7.988;2023-02-26T18:47:19;1.80;45.50
47532;DHT22;33273;52.254;7.988;2023-02-26T18:49:46;1.70;45.90
47532;DHT22;33273;52.254;7.988;2023-02-26T18:52:12;1.70;46.20
47532;DHT22;33273;52.254;7.988;2023-02-26T18:54:39;1.60;46.00
47532;DHT22;33273;52.254;7.988;2023-02-26T18:57:05;1.60;46.20
47532;DHT22;33273;52.254;7.988;2023-02-26T18:59:32;1.60;46.20
47532;DHT22;33273;52.254;7.988;2023-02-26T19:01:59;1.60;46.00